Time;durP1;ratioP1;P1;durP2;ratioP2;P2;SDS_P1;SDS_P2;PMS_P1;PMS_P2;Temp;Humidity;BMP_temperature;BMP_pressure;BME280_temperature;BME280_humidity;BME280_pressure;Samples;Min_cycle;Max_cycle;Signal;HPM_P1;HPM_P2
2024/01/22 00:00:38;;;;;;;7.13;4.13;;;9.50;99.90;;;;;;5075623;28;20199;-80
2024/01/22 00:03:04;;;;;;;7.27;4.50;;;9.50;99.90;;;;;;5076414;28;20203;-80
2024/01/22 00:05:30;;;;;;;5.23;3.43;;;9.60;99.90;;;;;;5074933;28;20214;-81
2024/01/22 00:07:55;;;;;;;7.87;4.37;;;9.60;99.90;;;;;;5074439;28;20219;-81
2024/01/22 00:10:21;;;;;;;6.27;3.50;;;9.70;99.90;;;;;;5075221;28;20656;-80
2024/01/22 00:12:46;;;;;;;8.83;4.03;;;9.70;99.90;;;;;;5081376;28;20535;-82
2024/01/22 00:15:12;;;;;;;7.33;3.67;;;9.70;99.90;;;;;;5077584;28;20179;-80
2024/01/22 00:17:38;;;;;;;6.73;3.83;;;9.70;99.90;;;;;;5075532;28;20700;-80
2024/01/22 00:20:04;;;;;;;4.50;3.13;;;9.80;99.90;;;;;;5073998;28;20172;-80
2024/01/22 00:22:30;;;;;;;5.83;3.40;;;9.80;99.90;;;;;;5073719;28;20512;-80
2024/01/22 00:24:56;;;;;;;6.37;3.70;;;9.80;99.90;;;;;;5074806;28;20176;-81
2024/01/22 00:27:21;;;;;;;7.00;3.83;;;9.80;99.90;;;;;;5074934;28;20620;-81
2024/01/22 00:29:47;;;;;;;5.57;3.70;;;9.90;99.90;;;;;;5072838;28;20195;-80
2024/01/22 00:32:12;;;;;;;7.00;3.50;;;9.90;99.90;;;;;;5074021;28;20257;-80
2024/01/22 00:34:38;;;;;;;4.53;3.07;;;9.90;99.90;;;;;;5074136;28;20532;-80
2024/01/22 00:37:04;;;;;;;5.13;3.30;;;10.00;99.90;;;;;;5073118;28;20168;-83
2024/01/22 00:39:30;;;;;;;5.97;3.30;;;10.10;99.70;;;;;;5074670;28;20181;-81
2024/01/22 00:41:56;;;;;;;5.50;2.90;;;10.10;99.10;;;;;;5074120;28;20164;-81
2024/01/22 00:44:22;;;;;;;5.80;2.80;;;10.10;98.00;;;;;;5074481;28;20165;-81
2024/01/22 00:46:48;;;;;;;4.70;3.13;;;10.20;96.90;;;;;;5073014;28;20555;-83
2024/01/22 00:49:14;;;;;;;7.23;3.20;;;10.10;95.20;;;;;;5073878;28;20179;-81
2024/01/22 00:51:40;;;;;;;5.60;2.70;;;10.20;95.20;;;;;;5074105;28;20659;-80
2024/01/22 00:54:06;;;;;;;5.97;2.80;;;10.20;93.40;;;;;;5073777;28;20251;-82
2024/01/22 00:56:33;;;;;;;5.80;2.70;;;10.30;93.60;;;;;;5074744;28;20179;-81
2024/01/22 00:58:59;;;;;;;4.30;2.80;;;10.40;91.40;;;;;;5073364;28;20179;-85
2024/01/22 01:01:24;;;;;;;4.47;2.80;;;10.40;91.60;;;;;;5072266;28;20176;-80
2024/01/22 01:03:50;;;;;;;4.47;2.50;;;10.30;90.70;;;;;;5073112;28;20179;-82
2024/01/22 01:06:15;;;;;;;4.13;2.40;;;10.40;91.10;;;;;;5073997;28;20528;-80
2024/01/22 01:08:41;;;;;;;6.37;2.83;;;10.30;90.90;;;;;;5072700;28;20187;-82
2024/01/22 01:11:07;;;;;;;5.17;2.50;;;10.40;90.80;;;;;;5073307;28;20177;-81
2024/01/22 01:13:32;;;;;;;4.00;2.33;;;10.40;90.30;;;;;;5072840;28;20240;-80
2024/01/22 01:15:58;;;;;;;3.03;2.00;;;10.50;90.20;;;;;;5089203;28;20261;-81
2024/01/22 01:18:24;;;;;;;4.67;2.40;;;10.50;88.50;;;;;;5093508;28;20196;-82
2024/01/22 01:20:49;;;;;;;4.33;2.30;;;10.50;87.80;;;;;;5092239;28;20225;-83
2024/01/22 01:23:15;;;;;;;4.10;2.33;;;10.50;86.30;;;;;;5092435;28;20232;-81
2024/01/22 01:25:41;;;;;;;4.07;2.67;;;10.60;86.50;;;;;;5092133;28;20176;-83
2024/01/22 01:28:06;;;;;;;2.80;2.03;;;10.60;87.90;;;;;;5093069;28;20667;-81
2024/01/22 01:30:32;;;;;;;3.93;2.50;;;10.60;86.80;;;;;;5093390;28;20171;-81
2024/01/22 01:32:58;;;;;;;3.67;2.03;;;10.70;84.70;;;;;;5093074;28;20183;-81
2024/01/22 01:35:23;;;;;;;3.93;2.10;;;10.60;85.50;;;;;;5095733;28;20175;-80
2024/01/22 01:37:49;;;;;;;4.23;2.30;;;10.70;87.00;;;;;;5093193;28;20663;-81
2024/01/22 01:40:15;;;;;;;3.63;2.57;;;10.70;87.80;;;;;;5093241;28;20266;-81
2024/01/22 01:42:43;;;;;;;3.87;1.87;;;10.70;87.60;;;;;;5092735;28;20164;-81
2024/01/22 01:45:13;;;;;;;2.40;1.83;;;10.80;88.70;;;;;;5092479;28;20239;-80
2024/01/22 01:47:40;;;;;;;2.37;1.87;;;10.70;91.80;;;;;;5093178;28;20683;-81
2024/01/22 01:50:06;;;;;;;6.33;2.20;;;10.70;91.50;;;;;;5092419;28;20281;-81
2024/01/22 01:52:31;;;;;;;3.80;2.10;;;10.80;91.20;;;;;;5094019;28;20163;-81
2024/01/22 01:54:57;;;;;;;4.07;2.23;;;11.00;90.80;;;;;;5098323;28;20194;-80
2024/01/22 01:57:24;;;;;;;4.00;2.00;;;10.90;91.10;;;;;;5107712;28;20690;-81
2024/01/22 01:59:51;;;;;;;3.73;1.93;;;11.00;90.00;;;;;;5097184;28;20171;-80
2024/01/22 02:02:17;;;;;;;3.17;1.80;;;11.00;89.40;;;;;;5092412;28;20240;-81
2024/01/22 02:04:43;;;;;;;4.03;1.90;;;11.00;87.40;;;;;;5092009;28;20171;-80
2024/01/22 02:07:08;;;;;;;4.30;2.10;;;11.10;86.10;;;;;;5092187;28;20679;-81
2024/01/22 02:09:51;;;;;;;3.10;1.77;;;11.10;86.20;;;;;;5092540;28;20179;-84
2024/01/22 02:12:18;;;;;;;3.63;1.83;;;11.20;88.80;;;;;;5090664;28;20175;-81
2024/01/22 02:14:45;;;;;;;2.97;1.77;;;11.20;87.20;;;;;;5092740;28;20171;-81
2024/01/22 02:17:10;;;;;;;2.57;1.70;;;11.30;81.00;;;;;;5091483;28;20678;-80
2024/01/22 02:19:36;;;;;;;2.53;1.70;;;11.40;78.30;;;;;;5091798;28;20199;-82
2024/01/22 02:22:02;;;;;;;3.77;1.70;;;11.50;78.10;;;;;;5092294;28;20704;-81
2024/01/22 02:24:28;;;;;;;5.27;2.00;;;11.40;77.80;;;;;;5092314;28;20167;-81
2024/01/22 02:26:54;;;;;;;3.70;1.83;;;11.30;77.10;;;;;;5092474;28;20199;-81
2024/01/22 02:29:19;;;;;;;2.67;1.80;;;11.40;78.40;;;;;;5092355;28;20254;-82
2024/01/22 02:31:48;;;;;;;2.30;1.60;;;11.30;83.10;;;;;;5092519;28;20183;-80
2024/01/22 02:34:14;;;;;;;3.43;1.60;;;11.30;84.30;;;;;;5092885;28;20623;-81
2024/01/22 02:36:40;;;;;;;2.40;1.50;;;11.30;83.90;;;;;;5092558;28;20199;-80
2024/01/22 02:39:05;;;;;;;2.37;1.67;;;11.40;82.30;;;;;;5091904;28;20623;-81
2024/01/22 02:41:31;;;;;;;4.73;1.43;;;11.30;84.00;;;;;;5092877;28;20164;-82
2024/01/22 02:43:56;;;;;;;2.37;1.47;;;11.30;84.50;;;;;;5091800;28;20175;-84
2024/01/22 02:46:24;;;;;;;3.27;1.80;;;11.30;90.70;;;;;;5092922;28;20208;-83
2024/01/22 02:48:50;;;;;;;3.30;1.60;;;11.30;95.40;;;;;;5090874;28;20654;-80
2024/01/22 02:51:16;;;;;;;4.53;1.60;;;11.30;98.10;;;;;;5091819;28;20220;-82
2024/01/22 02:53:42;;;;;;;2.87;1.57;;;11.30;99.90;;;;;;5091519;28;20183;-81
2024/01/22 02:56:07;;;;;;;3.30;1.80;;;11.30;99.90;;;;;;5092726;28;20179;-84
2024/01/22 02:58:34;;;;;;;2.33;1.50;;;11.20;99.90;;;;;;5091526;28;20249;-82
2024/01/22 03:01:00;;;;;;;2.40;1.67;;;11.30;99.90;;;;;;5093421;28;20578;-81
2024/01/22 03:03:25;;;;;;;3.47;1.50;;;11.30;99.90;;;;;;5092002;28;20168;-84
2024/01/22 03:05:51;;;;;;;4.03;1.80;;;11.10;99.90;;;;;;5092705;28;20215;-83
2024/01/22 03:08:16;;;;;;;2.73;1.60;;;11.20;99.90;;;;;;5091700;28;20666;-80
2024/01/22 03:10:43;;;;;;;2.37;1.50;;;11.10;99.90;;;;;;5091104;28;20176;-80
2024/01/22 03:13:09;;;;;;;3.43;1.77;;;11.10;99.90;;;;;;5092078;28;20650;-80
2024/01/22 03:15:34;;;;;;;4.43;1.80;;;11.10;99.90;;;;;;5093393;28;20168;-81
2024/01/22 03:18:00;;;;;;;3.03;1.47;;;11.10;99.90;;;;;;5093695;28;20230;-82
2024/01/22 03:20:25;;;;;;;2.83;1.67;;;11.20;99.90;;;;;;5092256;28;20634;-82
2024/01/22 03:22:52;;;;;;;3.87;1.60;;;11.10;99.90;;;;;;5093216;28;20265;-80
2024/01/22 03:25:17;;;;;;;3.70;1.63;;;11.10;99.90;;;;;;5091757;28;20179;-82
2024/01/22 03:27:43;;;;;;;3.57;1.57;;;11.10;99.90;;;;;;5091880;28;20302;-82
2024/01/22 03:30:09;;;;;;;2.40;1.40;;;11.30;99.90;;;;;;5091868;28;20183;-83
2024/01/22 03:32:35;;;;;;;2.23;1.60;;;11.20;99.90;;;;;;5092238;28;20584;-82
2024/01/22 03:35:01;;;;;;;2.43;1.50;;;11.30;99.90;;;;;;5092776;28;20168;-82
2024/01/22 03:37:26;;;;;;;2.43;1.37;;;11.30;99.90;;;;;;5093074;28;20180;-81
2024/01/22 03:39:52;;;;;;;2.53;1.50;;;11.30;99.90;;;;;;5092962;28;20180;-81
2024/01/22 03:42:17;;;;;;;4.47;1.80;;;11.40;99.90;;;;;;5093959;28;20194;-81
2024/01/22 03:44:43;;;;;;;4.27;1.50;;;11.50;99.90;;;;;;5091269;28;20172;-82
2024/01/22 03:47:09;;;;;;;2.10;1.30;;;11.40;99.90;;;;;;5091305;28;20207;-81
2024/01/22 03:49:35;;;;;;;5.70;1.30;;;11.50;99.90;;;;;;5093972;28;20179;-86
2024/01/22 03:52:00;;;;;;;2.40;1.20;;;11.60;99.90;;;;;;5094670;28;20647;-82
2024/01/22 03:54:26;;;;;;;3.13;1.10;;;11.70;99.90;;;;;;5094673;28;20197;-82
2024/01/22 03:56:52;;;;;;;2.60;1.00;;;11.70;99.80;;;;;;5093913;28;20280;-82
2024/01/22 03:59:18;;;;;;;4.90;1.37;;;11.80;98.90;;;;;;5094414;28;20521;-83
2024/01/22 04:01:43;;;;;;;3.40;1.17;;;12.00;93.70;;;;;;5094973;28;20179;-83
2024/01/22 04:04:10;;;;;;;2.83;1.10;;;12.00;91.10;;;;;;5094729;28;20174;-83
2024/01/22 04:06:36;;;;;;;2.97;1.20;;;12.00;88.70;;;;;;5093644;28;20172;-82
2024/01/22 04:09:01;;;;;;;2.87;1.57;;;12.10;87.20;;;;;;5094633;28;20184;-83
2024/01/22 04:11:27;;;;;;;3.43;1.20;;;12.10;76.20;;;;;;5094589;28;20214;-83
2024/01/22 04:13:52;;;;;;;4.23;1.20;;;12.30;75.90;;;;;;5094833;28;20652;-83
2024/01/22 04:16:18;;;;;;;2.97;1.40;;;12.30;71.60;;;;;;5095885;28;20706;-81
2024/01/22 04:18:44;;;;;;;2.07;1.00;;;12.30;70.30;;;;;;5094334;28;20173;-85
2024/01/22 04:21:10;;;;;;;3.43;1.00;;;12.40;63.60;;;;;;5095529;28;20255;-86
2024/01/22 04:23:36;;;;;;;2.17;1.00;;;12.40;60.40;;;;;;5094133;28;20693;-80
2024/01/22 04:26:03;;;;;;;2.07;1.00;;;12.40;61.40;;;;;;5094160;28;20589;-84
2024/01/22 04:28:29;;;;;;;1.87;1.00;;;12.40;60.30;;;;;;5094312;28;20302;-81
2024/01/22 04:30:55;;;;;;;1.53;0.87;;;12.50;56.80;;;;;;5094284;28;20256;-82
2024/01/22 04:33:21;;;;;;;2.93;1.20;;;12.50;55.00;;;;;;5095206;28;20569;-84
2024/01/22 04:35:48;;;;;;;5.03;1.37;;;12.70;48.00;;;;;;5093250;28;20609;-82
2024/01/22 04:38:14;;;;;;;4.23;1.13;;;12.80;47.80;;;;;;5094056;28;20193;-84
2024/01/22 04:40:39;;;;;;;3.17;1.30;;;12.50;49.40;;;;;;5094030;28;20320;-82
2024/01/22 04:43:05;;;;;;;2.53;1.07;;;12.50;52.90;;;;;;5093951;28;20765;-83
2024/01/22 04:45:31;;;;;;;2.80;1.23;;;12.50;72.50;;;;;;5093827;28;20178;-82
2024/01/22 04:47:56;;;;;;;2.33;1.27;;;12.50;83.50;;;;;;5094263;28;20220;-82
2024/01/22 04:50:22;;;;;;;3.57;1.13;;;12.40;92.10;;;;;;5092982;28;20557;-82
2024/01/22 04:52:48;;;;;;;1.60;1.27;;;12.40;96.70;;;;;;5093985;28;20624;-83
2024/01/22 04:55:14;;;;;;;1.60;0.93;;;12.30;97.30;;;;;;5093720;28;20176;-82
2024/01/22 04:57:39;;;;;;;3.70;1.17;;;12.20;97.40;;;;;;5093476;28;20206;-82
2024/01/22 05:00:06;;;;;;;2.30;0.80;;;12.30;96.40;;;;;;5093013;28;20177;-82
2024/01/22 05:02:32;;;;;;;3.87;1.30;;;12.40;91.80;;;;;;5093527;28;20628;-82
2024/01/22 05:05:00;;;;;;;2.10;1.10;;;12.40;83.60;;;;;;5093878;28;20164;-81
2024/01/22 05:07:25;;;;;;;3.57;1.30;;;12.40;83.80;;;;;;5094310;28;20217;-83
2024/01/22 05:10:00;;;;;;;2.67;1.37;;;12.50;82.60;;;;;;5092983;28;20177;-82
2024/01/22 05:12:26;;;;;;;4.00;1.27;;;12.50;89.30;;;;;;5093708;28;20169;-81
2024/01/22 05:14:52;;;;;;;2.57;1.10;;;12.30;95.90;;;;;;5093865;28;20168;-81
2024/01/22 05:17:17;;;;;;;2.77;1.10;;;12.20;99.90;;;;;;5096090;28;20252;-81
2024/01/22 05:19:43;;;;;;;4.40;1.47;;;12.30;99.90;;;;;;5095167;28;20172;-81
2024/01/22 05:22:09;;;;;;;2.87;1.33;;;12.10;99.90;;;;;;5093217;28;20191;-82
2024/01/22 05:24:35;;;;;;;3.90;1.27;;;12.10;99.90;;;;;;5093651;28;20184;-84
2024/01/22 05:27:02;;;;;;;4.83;1.50;;;12.00;99.90;;;;;;5092913;28;20202;-85
2024/01/22 05:29:28;;;;;;;2.83;1.40;;;11.90;99.90;;;;;;5092913;28;20167;-82
2024/01/22 05:31:53;;;;;;;3.67;1.20;;;11.90;99.90;;;;;;5091878;28;20173;-82
2024/01/22 05:34:19;;;;;;;4.50;1.40;;;11.90;99.90;;;;;;5093025;28;20229;-82
2024/01/22 05:36:44;;;;;;;2.70;1.50;;;11.90;99.90;;;;;;5091728;28;20271;-82
2024/01/22 05:39:10;;;;;;;2.70;1.40;;;11.90;99.90;;;;;;5092744;28;20179;-81
2024/01/22 05:41:36;;;;;;;2.43;1.10;;;11.90;99.90;;;;;;5092557;28;20210;-81
2024/01/22 05:44:01;;;;;;;3.13;1.40;;;11.90;99.90;;;;;;5094211;28;20647;-82
2024/01/22 05:46:27;;;;;;;2.67;1.23;;;12.00;99.90;;;;;;5092647;28;20259;-82
2024/01/22 05:48:53;;;;;;;1.70;1.00;;;12.10;99.90;;;;;;5091548;28;20179;-84
2024/01/22 05:51:19;;;;;;;3.83;1.30;;;12.10;99.90;;;;;;5092184;28;20683;-82
2024/01/22 05:53:46;;;;;;;3.13;1.17;;;12.10;99.90;;;;;;5092133;28;20505;-84
2024/01/22 05:56:27;;;;;;;2.67;1.07;;;12.30;99.90;;;;;;5091668;28;20659;-81
2024/01/22 05:58:54;;;;;;;3.30;1.07;;;12.40;99.90;;;;;;5093419;28;20168;-83
2024/01/22 06:01:21;;;;;;;2.67;1.20;;;12.50;96.60;;;;;;5092230;28;20167;-82
2024/01/22 06:03:47;;;;;;;2.63;0.90;;;12.80;90.00;;;;;;5091202;28;20746;-82
2024/01/22 06:06:14;;;;;;;3.50;0.90;;;12.90;80.30;;;;;;5092050;28;20305;-82
2024/01/22 06:08:43;;;;;;;2.03;1.03;;;12.90;75.20;;;;;;5092383;28;20211;-87
2024/01/22 06:11:10;;;;;;;2.97;1.10;;;12.80;68.70;;;;;;5093394;28;20178;-83
2024/01/22 06:13:39;;;;;;;1.67;0.90;;;13.00;61.00;;;;;;5093341;28;20248;-82
2024/01/22 06:16:14;;;;;;;2.40;1.03;;;13.00;67.10;;;;;;5091029;28;20252;-81
2024/01/22 06:18:41;;;;;;;2.70;1.10;;;12.90;72.00;;;;;;5091655;28;20206;-82
2024/01/22 06:21:07;;;;;;;5.83;1.30;;;12.80;82.40;;;;;;5092779;28;20235;-82
2024/01/22 06:23:33;;;;;;;3.47;1.20;;;12.70;92.20;;;;;;5091331;28;20174;-82
2024/01/22 06:26:00;;;;;;;4.03;1.17;;;12.60;96.70;;;;;;5092320;28;20238;-83
2024/01/22 06:28:26;;;;;;;5.17;1.27;;;12.60;99.90;;;;;;5091048;28;20211;-82
2024/01/22 06:30:53;;;;;;;3.83;1.47;;;12.70;99.90;;;;;;5093218;28;20175;-82
2024/01/22 06:33:20;;;;;;;2.33;1.10;;;12.60;99.90;;;;;;5092644;28;20182;-82
2024/01/22 06:35:46;;;;;;;4.80;1.07;;;12.60;99.90;;;;;;5091927;28;20168;-82
2024/01/22 06:38:12;;;;;;;7.40;1.67;;;12.50;99.90;;;;;;5093293;28;20194;-84
2024/01/22 06:40:38;;;;;;;5.20;1.53;;;12.50;99.90;;;;;;5091375;28;20641;-83
2024/01/22 06:43:05;;;;;;;6.17;1.90;;;12.50;98.50;;;;;;5090615;28;20177;-83
2024/01/22 06:45:31;;;;;;;7.70;2.70;;;12.50;96.00;;;;;;5090523;28;20167;-84
2024/01/22 06:47:56;;;;;;;10.73;2.40;;;12.50;95.10;;;;;;5090481;28;20728;-83
2024/01/22 06:50:22;;;;;;;8.47;2.17;;;12.60;94.70;;;;;;5090946;28;20213;-83
2024/01/22 06:52:48;;;;;;;8.70;3.10;;;12.50;99.90;;;;;;5091257;28;20178;-83
2024/01/22 06:55:14;;;;;;;10.20;2.63;;;12.60;99.90;;;;;;5091943;28;20164;-82
2024/01/22 06:57:40;;;;;;;6.70;1.73;;;12.60;99.90;;;;;;5106654;28;20183;-83
2024/01/22 07:00:07;;;;;;;9.23;2.23;;;12.60;99.90;;;;;;5097670;28;20217;-83
2024/01/22 07:02:33;;;;;;;9.20;2.30;;;12.60;99.90;;;;;;5090919;28;20524;-85
2024/01/22 07:04:59;;;;;;;6.00;1.83;;;12.50;99.90;;;;;;5090814;28;20203;-82
2024/01/22 07:07:25;;;;;;;4.27;1.50;;;12.50;99.90;;;;;;5091279;28;20242;-82
2024/01/22 07:09:52;;;;;;;4.43;1.47;;;12.40;99.90;;;;;;5091284;28;20181;-83
2024/01/22 07:12:19;;;;;;;3.13;1.40;;;12.50;99.90;;;;;;5093208;28;20213;-81
2024/01/22 07:14:45;;;;;;;2.20;1.30;;;12.30;99.90;;;;;;5093267;28;20171;-81
2024/01/22 07:17:13;;;;;;;3.03;1.40;;;12.20;99.90;;;;;;5090531;28;20294;-83
2024/01/22 07:19:39;;;;;;;2.70;1.20;;;12.30;99.90;;;;;;5090442;28;20172;-85
2024/01/22 07:22:04;;;;;;;4.97;1.33;;;12.10;99.90;;;;;;5090807;28;20179;-83
2024/01/22 07:24:31;;;;;;;4.67;1.50;;;12.10;99.90;;;;;;5093820;28;20199;-83
2024/01/22 07:26:57;;;;;;;4.07;1.33;;;12.10;99.90;;;;;;5094404;28;20656;-83
2024/01/22 07:29:23;;;;;;;3.10;1.40;;;12.10;99.90;;;;;;5095030;28;20182;-84
2024/01/22 07:31:48;;;;;;;3.27;1.13;;;12.20;99.90;;;;;;5095523;28;20175;-84
2024/01/22 07:34:14;;;;;;;3.20;1.60;;;12.20;99.90;;;;;;5095177;28;20217;-86
2024/01/22 07:36:39;;;;;;;4.83;1.50;;;12.20;99.90;;;;;;5095337;28;20168;-85
2024/01/22 07:39:07;;;;;;;5.13;1.73;;;12.00;99.90;;;;;;5095363;28;20218;-84
2024/01/22 07:41:33;;;;;;;2.83;1.33;;;12.00;99.90;;;;;;5095104;28;20187;-84
2024/01/22 07:43:59;;;;;;;3.63;1.53;;;12.00;99.90;;;;;;5094925;28;20207;-85
2024/01/22 07:46:26;;;;;;;2.80;1.43;;;12.00;99.90;;;;;;5104880;28;20167;-85
2024/01/22 07:48:52;;;;;;;4.30;1.50;;;12.00;99.90;;;;;;5094995;28;20216;-84
2024/01/22 07:51:19;;;;;;;3.30;1.07;;;11.90;99.90;;;;;;5096392;28;20171;-86
2024/01/22 07:53:44;;;;;;;1.70;1.00;;;12.00;99.90;;;;;;5093891;28;20237;-85
2024/01/22 07:56:10;;;;;;;2.53;1.20;;;11.90;99.90;;;;;;5094123;28;20562;-83
2024/01/22 07:58:39;;;;;;;3.60;1.23;;;11.80;99.90;;;;;;5072888;28;20179;-82
2024/01/22 08:01:05;;;;;;;4.07;1.37;;;11.80;99.90;;;;;;5071596;28;20172;-82
2024/01/22 08:03:30;;;;;;;5.30;1.53;;;11.80;99.90;;;;;;5072541;28;20170;-82
2024/01/22 08:05:56;;;;;;;4.07;1.80;;;11.70;99.90;;;;;;5075072;28;20172;-80
2024/01/22 08:08:22;;;;;;;4.80;1.63;;;11.80;99.90;;;;;;5073817;28;20216;-82
2024/01/22 08:10:47;;;;;;;4.80;1.60;;;11.80;99.90;;;;;;5074167;28;20169;-82
2024/01/22 08:13:13;;;;;;;5.07;1.90;;;11.80;99.90;;;;;;5073854;28;20180;-83
2024/01/22 08:15:38;;;;;;;4.27;1.43;;;11.90;99.90;;;;;;5073004;28;20581;-82
2024/01/22 08:18:04;;;;;;;3.97;1.43;;;11.90;99.90;;;;;;5072279;28;20610;-82
2024/01/22 08:20:30;;;;;;;3.77;1.70;;;11.90;99.90;;;;;;5073055;28;20172;-82
2024/01/22 08:22:55;;;;;;;9.53;2.03;;;11.90;99.90;;;;;;5073307;28;20172;-83
2024/01/22 08:25:27;;;;;;;4.83;1.73;;;11.90;99.90;;;;;;5074745;28;20165;-83
2024/01/22 08:27:56;;;;;;;8.87;2.03;;;12.00;99.90;;;;;;5079193;28;20283;-81
2024/01/22 08:30:22;;;;;;;6.97;2.00;;;11.90;99.90;;;;;;5081598;28;20172;-83
2024/01/22 08:32:48;;;;;;;4.50;2.00;;;11.90;99.90;;;;;;5081209;28;20182;-81
2024/01/22 08:35:16;;;;;;;6.50;2.03;;;12.00;99.90;;;;;;5080086;28;20203;-81
2024/01/22 08:37:45;;;;;;;6.47;1.60;;;11.90;99.90;;;;;;5073007;28;20184;-82
2024/01/22 08:40:11;;;;;;;5.33;1.70;;;12.00;99.90;;;;;;5073047;28;20271;-82
2024/01/22 08:42:36;;;;;;;5.70;1.90;;;12.10;99.90;;;;;;5073394;28;20199;-82
2024/01/22 08:45:02;;;;;;;6.77;1.87;;;12.10;99.90;;;;;;5080583;28;20650;-82
2024/01/22 08:47:28;;;;;;;5.33;1.60;;;12.20;99.90;;;;;;5080026;28;20215;-82
2024/01/22 08:49:54;;;;;;;5.97;1.70;;;12.20;99.90;;;;;;5072290;28;20169;-82
2024/01/22 08:52:19;;;;;;;8.13;2.20;;;12.30;99.90;;;;;;5073094;28;20168;-82
2024/01/22 08:54:45;;;;;;;5.50;2.23;;;12.30;99.90;;;;;;5073375;28;20168;-82
2024/01/22 08:57:10;;;;;;;7.57;2.23;;;12.30;99.90;;;;;;5073269;28;20238;-82
2024/01/22 08:59:36;;;;;;;6.10;2.20;;;12.40;99.90;;;;;;5072893;28;20187;-82
2024/01/22 09:02:02;;;;;;;8.27;2.20;;;12.40;94.50;;;;;;5073531;28;20200;-82
2024/01/22 09:04:28;;;;;;;7.67;2.00;;;12.50;90.10;;;;;;5072802;28;20187;-82
2024/01/22 09:06:54;;;;;;;6.43;2.07;;;12.60;82.70;;;;;;5072432;28;20207;-82
2024/01/22 09:09:20;;;;;;;9.77;2.53;;;12.60;82.70;;;;;;5073181;28;20189;-82
2024/01/22 09:11:45;;;;;;;8.90;2.27;;;12.60;81.10;;;;;;5072693;28;20229;-82
2024/01/22 09:14:11;;;;;;;8.33;2.13;;;12.50;85.10;;;;;;5073229;28;20258;-82
2024/01/22 09:16:37;;;;;;;9.00;2.50;;;12.60;80.80;;;;;;5071821;28;20199;-82
2024/01/22 09:19:03;;;;;;;9.80;2.73;;;12.50;99.90;;;;;;5073288;28;20178;-83
2024/01/22 09:21:28;;;;;;;7.23;2.40;;;12.50;99.90;;;;;;5072769;28;20172;-82
2024/01/22 09:23:54;;;;;;;11.00;2.80;;;12.50;99.90;;;;;;5073923;28;20165;-81
2024/01/22 09:26:20;;;;;;;7.50;2.17;;;12.60;99.90;;;;;;5072404;28;20172;-82
2024/01/22 09:28:45;;;;;;;8.67;2.43;;;12.60;99.90;;;;;;5072227;28;20223;-83
2024/01/22 09:31:11;;;;;;;10.70;2.50;;;12.60;99.90;;;;;;5072286;28;20586;-82
2024/01/22 09:33:37;;;;;;;9.73;2.60;;;12.60;99.90;;;;;;5072419;28;20184;-81
2024/01/22 09:36:04;;;;;;;9.63;2.40;;;12.50;99.90;;;;;;5072564;28;20195;-82
2024/01/22 09:38:30;;;;;;;8.97;2.50;;;12.50;99.90;;;;;;5071334;28;20540;-82
2024/01/22 09:40:55;;;;;;;6.90;2.23;;;12.60;99.90;;;;;;5072267;28;20186;-83
2024/01/22 09:43:22;;;;;;;8.50;2.70;;;12.60;99.90;;;;;;5072602;28;20188;-82
2024/01/22 09:45:49;;;;;;;9.40;2.60;;;12.50;99.90;;;;;;5072176;28;20278;-82
2024/01/22 09:48:15;;;;;;;9.10;2.30;;;12.70;99.90;;;;;;5070951;28;20664;-81
2024/01/22 09:50:41;;;;;;;7.70;2.63;;;12.70;99.90;;;;;;5072350;28;20174;-82
2024/01/22 09:53:11;;;;;;;10.57;2.77;;;12.60;99.90;;;;;;5072186;28;20688;-83
2024/01/22 09:55:41;;;;;;;7.27;2.57;;;12.60;99.90;;;;;;5071801;28;20200;-82
2024/01/22 09:58:09;;;;;;;9.27;3.60;;;12.50;99.90;;;;;;5071784;28;20529;-82
2024/01/22 10:00:37;;;;;;;6.80;2.37;;;12.50;99.90;;;;;;5072260;28;20248;-82
2024/01/22 10:03:03;;;;;;;6.97;2.00;;;12.40;99.90;;;;;;5071432;28;20180;-82
2024/01/22 10:05:32;;;;;;;14.77;5.67;;;12.30;99.90;;;;;;5071905;28;20178;-82
2024/01/22 10:07:58;;;;;;;5.40;2.07;;;12.30;99.90;;;;;;5072701;28;20274;-82
2024/01/22 10:10:23;;;;;;;7.53;2.00;;;12.30;99.90;;;;;;5071626;28;20698;-82
2024/01/22 10:13:09;;;;;;;5.73;2.00;;;12.30;99.90;;;;;;5072146;28;20297;-83
2024/01/22 10:15:36;;;;;;;6.23;2.30;;;12.20;99.90;;;;;;5072092;28;20177;-83
2024/01/22 10:18:09;;;;;;;7.00;2.13;;;12.20;99.90;;;;;;5074378;28;20234;-83
2024/01/22 10:20:35;;;;;;;11.47;2.80;;;12.20;99.90;;;;;;5071895;28;20201;-83
2024/01/22 10:23:01;;;;;;;9.50;3.30;;;12.10;99.90;;;;;;5072063;28;20608;-81
2024/01/22 10:25:27;;;;;;;12.20;3.13;;;12.20;99.90;;;;;;5073236;28;20270;-82
2024/01/22 10:28:16;;;;;;;10.67;3.13;;;12.10;99.90;;;;;;5072559;28;20208;-82
2024/01/22 10:30:44;;;;;;;15.43;3.27;;;12.10;99.90;;;;;;5072485;28;20176;-82
2024/01/22 10:33:17;;;;;;;11.43;3.70;;;12.10;99.90;;;;;;5073954;28;20258;-83
2024/01/22 10:35:45;;;;;;;13.23;3.90;;;12.20;97.30;;;;;;5072255;28;20180;-82
2024/01/22 10:38:16;;;;;;;15.53;4.00;;;12.10;99.90;;;;;;5070562;28;20267;-82
2024/01/22 10:40:45;;;;;;;17.67;4.23;;;12.20;99.90;;;;;;5070777;28;20183;-83
2024/01/22 10:43:27;;;;;;;14.00;4.03;;;12.20;99.90;;;;;;5072828;28;20169;-82
2024/01/22 10:45:54;;;;;;;20.10;5.00;;;12.30;99.90;;;;;;5070471;28;20195;-81
2024/01/22 10:48:23;;;;;;;20.53;5.03;;;12.20;99.90;;;;;;5072645;28;20699;-82
2024/01/22 10:50:51;;;;;;;16.50;4.93;;;12.20;99.90;;;;;;5071378;28;20179;-82
2024/01/22 10:53:17;;;;;;;16.60;4.87;;;12.20;99.90;;;;;;5072425;28;20525;-83
2024/01/22 10:56:00;;;;;;;21.73;5.87;;;12.20;99.90;;;;;;5071046;28;20653;-82
2024/01/22 10:58:27;;;;;;;24.43;6.60;;;12.20;99.90;;;;;;5070534;28;20192;-83
2024/01/22 11:01:04;;;;;;;24.27;5.90;;;12.20;99.90;;;;;;5071498;28;20393;-81
2024/01/22 11:03:35;;;;;;;16.77;5.60;;;12.10;99.90;;;;;;5071325;28;20180;-82
2024/01/22 11:06:05;;;;;;;24.03;6.83;;;12.20;99.90;;;;;;5070214;28;20178;-82
2024/01/22 11:08:33;;;;;;;22.73;5.73;;;12.10;99.90;;;;;;5070987;28;20224;-80
2024/01/22 11:11:00;;;;;;;19.77;5.00;;;12.20;99.90;;;;;;5071346;28;20281;-81
2024/01/22 11:13:27;;;;;;;27.33;6.43;;;12.10;99.90;;;;;;5072458;28;20828;-83
2024/01/22 11:15:54;;;;;;;24.60;6.53;;;12.10;99.90;;;;;;5088218;28;20184;-81
2024/01/22 11:18:20;;;;;;;23.90;6.90;;;12.10;99.90;;;;;;5073935;28;20199;-82
2024/01/22 11:20:45;;;;;;;20.70;6.43;;;12.10;99.90;;;;;;5071298;28;20172;-82
2024/01/22 11:23:16;;;;;;;21.03;6.40;;;12.10;99.90;;;;;;5070033;28;20629;-83
2024/01/22 11:25:42;;;;;;;22.73;5.70;;;12.10;99.90;;;;;;5071272;28;20204;-83
2024/01/22 11:28:10;;;;;;;19.90;5.00;;;12.20;99.90;;;;;;5071173;28;20208;-82
2024/01/22 11:30:41;;;;;;;22.40;5.80;;;12.10;99.90;;;;;;5073034;28;20214;-82
2024/01/22 11:33:25;;;;;;;21.97;5.27;;;12.00;99.90;;;;;;5077532;28;20203;-82
2024/01/22 11:35:52;;;;;;;21.40;5.57;;;12.00;99.90;;;;;;5078104;28;20238;-82
2024/01/22 11:38:42;;;;;;;17.60;5.53;;;11.90;99.90;;;;;;5072373;28;20230;-82
2024/01/22 11:41:08;;;;;;;18.87;5.00;;;11.90;99.90;;;;;;5071175;28;20177;-82
2024/01/22 11:43:34;;;;;;;17.20;5.27;;;11.80;99.90;;;;;;5070805;28;20206;-82
2024/01/22 11:46:15;;;;;;;21.17;5.20;;;11.80;99.90;;;;;;5069822;28;20207;-82
2024/01/22 11:48:40;;;;;;;25.27;6.13;;;11.80;99.90;;;;;;5070511;28;20306;-83
2024/01/22 11:51:06;;;;;;;23.60;5.60;;;11.80;99.90;;;;;;5072569;28;20683;-82
2024/01/22 11:53:32;;;;;;;17.17;4.30;;;11.90;99.90;;;;;;5069150;28;20636;-82
2024/01/22 11:56:04;;;;;;;25.77;6.13;;;11.80;99.90;;;;;;5070668;28;20169;-83
2024/01/22 11:58:31;;;;;;;20.90;6.23;;;11.90;99.90;;;;;;5070638;28;20180;-82
2024/01/22 12:00:58;;;;;;;22.73;6.10;;;11.90;99.90;;;;;;5070277;28;20714;-84
2024/01/22 12:03:29;;;;;;;22.00;5.93;;;12.00;99.90;;;;;;5070135;28;20172;-81
2024/01/22 12:06:01;;;;;;;27.47;6.33;;;12.10;99.90;;;;;;5071298;28;20296;-81
2024/01/22 12:08:27;;;;;;;23.57;5.93;;;12.10;99.90;;;;;;5070589;28;20229;-83
2024/01/22 12:11:03;;;;;;;29.70;6.40;;;12.20;99.90;;;;;;5072200;28;20172;-82
2024/01/22 12:13:29;;;;;;;23.77;6.57;;;12.10;99.90;;;;;;5074419;28;20168;-81
2024/01/22 12:15:56;;;;;;;26.37;7.27;;;12.10;99.90;;;;;;5073783;28;20742;-83
2024/01/22 12:18:25;;;;;;;21.23;5.87;;;12.30;99.90;;;;;;5074006;28;20196;-82
2024/01/22 12:20:51;;;;;;;26.23;5.87;;;12.30;99.90;;;;;;5072636;28;20199;-83
2024/01/22 12:23:31;;;;;;;24.13;6.53;;;12.40;99.90;;;;;;5074100;28;20174;-83
2024/01/22 12:25:57;;;;;;;24.17;6.40;;;12.40;99.90;;;;;;5073906;28;20172;-84
2024/01/22 12:28:23;;;;;;;19.43;5.33;;;12.50;99.90;;;;;;5073434;28;20303;-82
2024/01/22 12:31:01;;;;;;;22.13;6.10;;;12.60;99.90;;;;;;5074842;28;20233;-82
2024/01/22 12:33:28;;;;;;;26.50;7.63;;;12.30;99.90;;;;;;5074082;28;20530;-81
2024/01/22 12:36:09;;;;;;;24.17;6.67;;;12.20;99.90;;;;;;5077587;28;20176;-82
2024/01/22 12:38:51;;;;;;;20.10;5.67;;;12.30;99.90;;;;;;5074336;28;20201;-81
2024/01/22 12:41:18;;;;;;;22.33;5.80;;;12.20;99.90;;;;;;5073439;28;20172;-82
2024/01/22 12:43:44;;;;;;;22.33;5.53;;;12.10;99.90;;;;;;5074044;28;20201;-82